Time;durP1;ratioP1;P1;durP2;ratioP2;P2;SDS_P1;SDS_P2;PMS_P1;PMS_P2;Temp;Humidity;BMP_temperature;BMP_pressure;BME280_temperature;BME280_humidity;BME280_pressure;Samples;Min_cycle;Max_cycle;Signal;HPM_P1;HPM_P2
2022/12/04 00:01:04;;;;;;;40.73;20.07;;;;;;;8.40;100.00;100570.38;5112854;28;20195;-72
2022/12/04 00:03:31;;;;;;;38.40;20.63;;;;;;;8.23;100.00;100561.78;5112915;27;20674;-70
2022/12/04 00:06:04;;;;;;;43.07;20.23;;;;;;;8.33;100.00;100568.66;5112653;28;20198;-71
2022/12/04 00:08:30;;;;;;;38.73;20.43;;;;;;;8.30;100.00;100556.56;5112696;28;20202;-71
2022/12/04 00:10:59;;;;;;;40.20;20.80;;;;;;;8.36;100.00;100561.75;5112892;28;20198;-70
2022/12/04 00:13:26;;;;;;;41.40;19.93;;;;;;;8.28;100.00;100558.28;5112752;28;20667;-70
2022/12/04 00:15:53;;;;;;;48.03;21.73;;;;;;;8.24;100.00;100572.09;5112726;27;20201;-70
2022/12/04 00:18:20;;;;;;;46.90;21.73;;;;;;;8.23;100.00;100566.94;5112383;28;20202;-59
2022/12/04 00:20:47;;;;;;;50.77;21.77;;;;;;;8.23;100.00;100565.22;5112635;28;20226;-60
2022/12/04 00:23:14;;;;;;;50.03;22.70;;;;;;;8.25;100.00;100573.81;5112752;28;20283;-60
2022/12/04 00:25:41;;;;;;;46.87;20.90;;;;;;;8.09;100.00;100579.03;5112517;28;20203;-59
2022/12/04 00:28:09;;;;;;;44.97;19.10;;;;;;;8.02;100.00;100583.34;5112400;28;20289;-60
2022/12/04 00:30:40;;;;;;;55.90;22.83;;;;;;;7.92;100.00;100564.41;5112324;28;20205;-59
2022/12/04 00:33:07;;;;;;;52.97;22.87;;;;;;;7.97;100.00;100562.69;5112102;28;20585;-59
2022/12/04 00:35:34;;;;;;;56.83;24.23;;;;;;;7.91;100.00;100575.59;5112284;28;20207;-70
2022/12/04 00:38:01;;;;;;;56.70;24.77;;;;;;;7.92;100.00;100573.88;5112234;28;20199;-70
2022/12/04 00:40:28;;;;;;;53.37;23.53;;;;;;;7.84;100.00;100575.63;5112152;28;20285;-61
2022/12/04 00:42:55;;;;;;;46.67;21.97;;;;;;;7.88;100.00;100573.03;5112218;28;20293;-60
2022/12/04 00:45:24;;;;;;;54.00;23.87;;;;;;;7.87;100.00;100570.44;5111668;28;20226;-59
2022/12/04 00:47:50;;;;;;;51.53;20.90;;;;;;;7.84;100.00;100568.72;5112248;28;20630;-62
2022/12/04 00:50:18;;;;;;;48.63;21.37;;;;;;;7.75;100.00;100571.31;5112118;28;20198;-71
2022/12/04 00:52:44;;;;;;;49.83;20.07;;;;;;;7.72;100.00;100573.03;5111778;27;20202;-71
2022/12/04 00:55:11;;;;;;;47.77;21.40;;;;;;;7.78;100.00;100571.31;5111720;28;20197;-60
2022/12/04 00:57:38;;;;;;;59.67;22.20;;;;;;;7.73;100.00;100573.03;5111785;28;20221;-61
2022/12/04 01:00:07;;;;;;;48.90;22.30;;;;;;;7.76;100.00;100567.00;5112249;28;20202;-60
2022/12/04 01:02:35;;;;;;;55.63;23.20;;;;;;;7.73;100.00;100560.13;5111713;27;20208;-71
2022/12/04 01:05:02;;;;;;;55.80;22.80;;;;;;;7.71;100.00;100551.50;5111710;28;20222;-61
2022/12/04 01:07:29;;;;;;;60.90;22.80;;;;;;;7.76;100.00;100560.13;5111807;28;20195;-60
2022/12/04 01:09:56;;;;;;;59.20;23.17;;;;;;;7.78;100.00;100566.16;5111618;28;20209;-60
2022/12/04 01:12:23;;;;;;;56.87;24.07;;;;;;;7.81;100.00;100558.38;5110466;28;20198;-59
2022/12/04 01:14:50;;;;;;;63.00;23.00;;;;;;;7.83;100.00;100559.25;5111857;28;20198;-59
2022/12/04 01:17:17;;;;;;;53.03;23.50;;;;;;;7.83;100.00;100554.06;5111574;28;20190;-60
2022/12/04 01:19:45;;;;;;;48.13;20.07;;;;;;;7.90;100.00;100560.94;5111549;28;20284;-60
2022/12/04 01:22:12;;;;;;;51.23;20.97;;;;;;;7.85;100.00;100569.59;5111568;28;20205;-59
2022/12/04 01:24:39;;;;;;;59.37;23.37;;;;;;;7.84;100.00;100570.44;5111174;28;20732;-70
2022/12/04 01:27:06;;;;;;;59.13;22.53;;;;;;;7.87;100.00;100568.72;5110992;27;20666;-71
2022/12/04 01:29:33;;;;;;;60.07;22.47;;;;;;;7.86;100.00;100567.00;5110926;28;20205;-60
2022/12/04 01:32:00;;;;;;;51.40;21.30;;;;;;;7.83;100.00;100573.88;5111220;28;20194;-60
2022/12/04 01:34:27;;;;;;;54.83;21.03;;;;;;;7.87;100.00;100568.72;5111102;28;20191;-60
2022/12/04 01:36:55;;;;;;;52.17;20.83;;;;;;;7.79;100.00;100567.84;5110963;28;20684;-70
2022/12/04 01:39:22;;;;;;;47.77;19.73;;;;;;;7.76;100.00;100543.75;5110978;28;20210;-71
2022/12/04 01:41:49;;;;;;;44.80;20.60;;;;;;;7.90;100.00;100567.88;5110956;28;20286;-60
2022/12/04 01:44:18;;;;;;;47.57;20.80;;;;;;;7.89;100.00;100577.34;5111125;28;20214;-70
2022/12/04 01:46:47;;;;;;;46.10;20.03;;;;;;;7.92;100.00;100574.72;5111106;28;20205;-67
2022/12/04 01:49:17;;;;;;;40.33;18.57;;;;;;;7.82;100.00;100573.03;5111133;28;20198;-70
2022/12/04 01:51:48;;;;;;;53.27;19.87;;;;;;;7.85;100.00;100567.00;5110885;28;20285;-70
2022/12/04 01:54:20;;;;;;;38.70;17.53;;;;;;;7.88;100.00;100565.28;5110701;28;20187;-60
2022/12/04 01:56:52;;;;;;;41.17;18.43;;;;;;;7.83;100.00;100564.41;5110823;28;20199;-60
2022/12/04 01:59:24;;;;;;;39.57;18.90;;;;;;;7.75;100.00;100566.16;5110874;28;20199;-60
2022/12/04 02:01:57;;;;;;;46.03;19.73;;;;;;;7.70;100.00;100560.09;5110751;28;20678;-70
2022/12/04 02:04:24;;;;;;;42.33;20.87;;;;;;;7.69;100.00;100555.81;5110405;28;20222;-70
2022/12/04 02:06:51;;;;;;;42.07;20.40;;;;;;;7.68;100.00;100543.75;5110540;28;20202;-71
2022/12/04 02:09:22;;;;;;;38.83;18.83;;;;;;;7.80;100.00;100558.38;5110686;28;20187;-70
2022/12/04 02:11:56;;;;;;;42.83;18.77;;;;;;;7.78;100.00;100563.56;5110633;28;20259;-71
2022/12/04 02:14:31;;;;;;;47.57;20.03;;;;;;;7.74;100.00;100564.41;5110498;28;20186;-71
2022/12/04 02:17:09;;;;;;;34.97;16.27;;;;;;;7.80;100.00;100553.19;5110409;28;20202;-70
2022/12/04 02:19:54;;;;;;;40.80;19.10;;;;;;;7.74;100.00;100554.09;5110202;28;20230;-61
2022/12/04 02:22:33;;;;;;;45.07;20.37;;;;;;;7.80;100.00;100546.31;5110342;28;20204;-61
2022/12/04 02:25:08;;;;;;;49.17;20.43;;;;;;;7.87;100.00;100560.09;5110105;28;20313;-71
2022/12/04 02:28:02;;;;;;;47.67;19.77;;;;;;;7.87;100.00;100555.81;5110126;28;20205;-60
2022/12/04 02:30:31;;;;;;;42.17;19.47;;;;;;;7.85;100.00;100557.53;5110030;28;20208;-61
2022/12/04 02:33:04;;;;;;;43.23;20.47;;;;;;;7.76;100.00;100557.53;5110299;28;20595;-60
2022/12/04 02:35:35;;;;;;;49.63;21.20;;;;;;;7.79;100.00;100554.09;5109868;28;20264;-60
2022/12/04 02:38:10;;;;;;;50.83;21.00;;;;;;;7.74;100.00;100554.09;5109730;28;20197;-59
2022/12/04 02:40:44;;;;;;;42.87;20.47;;;;;;;7.79;100.00;100554.94;5110116;28;20186;-60
2022/12/04 02:43:18;;;;;;;46.87;20.90;;;;;;;7.72;100.00;100545.47;5101622;28;20210;-60
2022/12/04 02:45:48;;;;;;;44.40;20.40;;;;;;;7.76;100.00;100561.84;5089397;28;20218;-59
2022/12/04 02:48:18;;;;;;;46.73;20.73;;;;;;;7.75;100.00;100566.16;5089398;28;20286;-60
2022/12/04 02:50:48;;;;;;;46.90;20.47;;;;;;;7.79;100.00;100557.50;5089441;28;20209;-59
2022/12/04 02:53:18;;;;;;;49.87;20.80;;;;;;;7.78;100.00;100550.66;5089880;28;20209;-59
2022/12/04 02:55:51;;;;;;;47.37;20.43;;;;;;;7.82;100.00;100547.19;5089373;28;20194;-69
2022/12/04 02:58:25;;;;;;;42.40;19.97;;;;;;;7.79;100.00;100554.94;5089425;28;20286;-68
2022/12/04 03:00:54;;;;;;;43.77;20.43;;;;;;;7.80;100.00;100561.81;5089467;28;20583;-69
2022/12/04 03:03:25;;;;;;;48.33;21.07;;;;;;;7.66;100.00;100553.25;5089925;28;20195;-69
2022/12/04 03:05:58;;;;;;;48.00;19.97;;;;;;;7.71;100.00;100567.00;5089661;28;20221;-69
2022/12/04 03:08:32;;;;;;;49.10;21.27;;;;;;;7.66;100.00;100563.56;5089676;28;20764;-70
2022/12/04 03:11:00;;;;;;;53.00;21.23;;;;;;;7.50;100.00;100552.38;5089542;28;20559;-70
2022/12/04 03:13:35;;;;;;;48.77;20.50;;;;;;;7.62;100.00;100549.78;5089002;28;20199;-59
2022/12/04 03:16:10;;;;;;;58.23;22.53;;;;;;;7.65;100.00;100549.78;5089177;28;20201;-60
2022/12/04 03:18:42;;;;;;;52.07;21.90;;;;;;;7.65;100.00;100554.09;5089232;28;20199;-60
2022/12/04 03:21:12;;;;;;;49.23;20.93;;;;;;;7.65;100.00;100543.75;5089375;28;20702;-60
2022/12/04 03:23:44;;;;;;;48.80;21.70;;;;;;;7.64;100.00;100548.06;5088992;28;20199;-60
2022/12/04 03:26:18;;;;;;;47.70;20.40;;;;;;;7.68;100.00;100554.06;5088953;28;20245;-59
2022/12/04 03:28:54;;;;;;;60.50;22.97;;;;;;;7.69;100.00;100554.94;5089017;28;20198;-61
2022/12/04 03:31:31;;;;;;;47.23;20.53;;;;;;;7.69;100.00;100548.03;5089258;28;20198;-61
2022/12/04 03:34:02;;;;;;;57.07;23.30;;;;;;;7.69;100.00;100549.78;5089439;28;20278;-59
2022/12/04 03:36:34;;;;;;;53.03;21.63;;;;;;;7.71;100.00;100556.66;5092753;28;20195;-60
2022/12/04 03:39:08;;;;;;;54.10;20.27;;;;;;;7.73;100.00;100557.53;5093251;28;20629;-61
2022/12/04 03:41:48;;;;;;;53.77;21.50;;;;;;;7.68;100.00;100553.22;5093017;28;20668;-60
2022/12/04 03:44:21;;;;;;;47.00;22.10;;;;;;;7.62;100.00;100538.59;5092983;28;20584;-59
2022/12/04 03:46:54;;;;;;;48.87;21.97;;;;;;;7.70;100.00;100552.34;5092662;28;20217;-59
2022/12/04 03:49:24;;;;;;;55.57;22.47;;;;;;;7.70;100.00;100552.34;5093103;28;20671;-60
2022/12/04 03:51:56;;;;;;;43.77;20.67;;;;;;;7.73;100.00;100554.94;5092851;28;20199;-60
2022/12/04 03:54:28;;;;;;;44.17;20.13;;;;;;;7.68;100.00;100564.41;5092777;28;20192;-70
2022/12/04 03:57:01;;;;;;;40.87;19.50;;;;;;;7.68;100.00;100554.06;5092678;28;20199;-70
2022/12/04 03:59:35;;;;;;;45.27;21.17;;;;;;;7.64;100.00;100557.53;5092358;28;20196;-70
2022/12/04 04:02:04;;;;;;;46.63;21.83;;;;;;;7.67;100.00;100557.56;5092864;28;20198;-70
2022/12/04 04:04:35;;;;;;;40.03;20.33;;;;;;;7.67;100.00;100554.09;5092425;28;20301;-71
2022/12/04 04:07:09;;;;;;;39.20;19.83;;;;;;;7.71;100.00;100561.84;5092555;28;20206;-70
2022/12/04 04:09:40;;;;;;;40.70;20.10;;;;;;;7.71;100.00;100558.38;5092473;28;20199;-70
2022/12/04 04:12:11;;;;;;;37.50;18.50;;;;;;;7.62;100.00;100557.53;5092396;28;20199;-71
2022/12/04 04:26:08;;;;;;;34.07;17.80;;;;;;;7.51;100.00;100548.94;5092214;28;20253;-70
2022/12/04 04:28:37;;;;;;;31.43;17.67;;;;;;;7.57;100.00;100564.41;5091751;28;20663;-70
2022/12/04 04:31:18;;;;;;;38.47;19.03;;;;;;;7.54;100.00;100566.16;5092082;28;20199;-71
2022/12/04 04:33:52;;;;;;;29.90;16.10;;;;;;;7.55;100.00;100562.72;5092126;28;20217;-70
2022/12/04 04:36:27;;;;;;;34.20;16.17;;;;;;;7.52;100.00;100573.03;5092058;28;20190;-70
2022/12/04 04:39:01;;;;;;;33.83;17.47;;;;;;;7.53;100.00;100577.34;5091867;28;20195;-70
2022/12/04 04:41:35;;;;;;;33.03;17.33;;;;;;;7.55;100.00;100581.66;5092149;28;20199;-70
2022/12/04 04:44:11;;;;;;;34.83;17.03;;;;;;;7.59;100.00;100574.75;5092082;28;20199;-71
2022/12/04 04:46:46;;;;;;;37.17;18.07;;;;;;;7.54;100.00;100576.50;5090577;28;20202;-70
2022/12/04 04:49:15;;;;;;;35.30;17.53;;;;;;;7.52;100.00;100575.63;5091791;28;20205;-70
2022/12/04 04:51:43;;;;;;;32.80;17.80;;;;;;;7.52;100.00;100573.03;5091459;28;20198;-69
2022/12/04 04:54:13;;;;;;;28.57;16.43;;;;;;;7.55;100.00;100565.28;5091686;28;20202;-70
2022/12/04 04:56:41;;;;;;;31.63;15.83;;;;;;;7.56;100.00;100575.59;5095131;28;20583;-59
2022/12/04 04:59:08;;;;;;;31.23;16.60;;;;;;;7.55;100.00;100585.97;5110563;28;20212;-60
2022/12/04 05:01:36;;;;;;;26.73;14.97;;;;;;;7.52;100.00;100593.72;5110594;28;20191;-59
2022/12/04 05:04:05;;;;;;;27.77;14.53;;;;;;;7.51;100.00;100599.72;5110393;28;20186;-59
2022/12/04 05:06:35;;;;;;;26.90;14.77;;;;;;;7.37;100.00;100567.84;5112392;28;20222;-71
2022/12/04 05:09:02;;;;;;;28.07;14.77;;;;;;;7.47;100.00;100596.28;5111770;28;20198;-70
2022/12/04 05:11:29;;;;;;;28.63;15.40;;;;;;;7.44;100.00;100596.28;5111494;28;20279;-71
2022/12/04 05:13:56;;;;;;;31.37;15.43;;;;;;;7.51;100.00;100597.16;5111188;28;20202;-71
2022/12/04 05:16:23;;;;;;;29.23;14.90;;;;;;;7.47;100.00;100598.84;5110644;28;20208;-71
2022/12/04 05:21:33;;;;;;;25.90;14.00;;;;;;;7.44;100.00;100605.75;5111545;28;20190;-71
2022/12/04 05:24:01;;;;;;;26.40;15.17;;;;;;;7.50;100.00;100598.88;5111693;28;20285;-60
2022/12/04 05:26:27;;;;;;;24.77;14.27;;;;;;;7.40;100.00;100604.03;5111234;28;20222;-60
2022/12/04 05:28:54;;;;;;;24.17;13.83;;;;;;;7.38;100.00;100601.44;5111627;28;20220;-60
2022/12/04 05:31:21;;;;;;;26.53;14.80;;;;;;;7.40;100.00;100606.59;5111323;28;20205;-61
2022/12/04 05:33:48;;;;;;;28.00;15.00;;;;;;;7.41;100.00;100606.63;5112068;28;20289;-60
2022/12/04 05:36:15;;;;;;;27.53;14.20;;;;;;;7.48;100.00;100613.50;5111528;28;20199;-60
2022/12/04 05:38:43;;;;;;;25.57;14.77;;;;;;;7.46;100.00;100615.22;5111117;28;20671;-60
2022/12/04 05:41:10;;;;;;;25.90;14.93;;;;;;;7.43;100.00;100615.22;5111083;28;20230;-61
2022/12/04 05:43:38;;;;;;;27.90;14.37;;;;;;;7.43;100.00;100611.78;5110762;27;20209;-60
2022/12/04 05:46:06;;;;;;;24.57;14.93;;;;;;;7.44;100.00;100614.38;5111130;28;20225;-61
2022/12/04 05:48:34;;;;;;;25.50;14.60;;;;;;;7.41;100.00;100619.53;5110915;27;20195;-60
2022/12/04 05:51:01;;;;;;;25.57;14.97;;;;;;;7.44;100.00;100616.09;5110969;28;20745;-60
2022/12/04 05:53:28;;;;;;;29.37;15.80;;;;;;;7.31;100.00;100614.34;5110829;28;20202;-68
2022/12/04 05:55:58;;;;;;;29.03;15.63;;;;;;;7.36;100.00;100612.63;5110647;28;20194;-71
2022/12/04 05:58:25;;;;;;;24.97;15.33;;;;;;;7.38;100.00;100622.09;5110351;27;20190;-61
2022/12/04 06:00:53;;;;;;;31.63;17.57;;;;;;;7.34;100.00;100604.84;5110061;28;20194;-59
2022/12/04 06:03:19;;;;;;;32.57;18.60;;;;;;;7.43;100.00;100616.94;5109820;28;20225;-60
2022/12/04 06:05:46;;;;;;;36.40;19.70;;;;;;;7.43;100.00;100622.13;5109728;28;20283;-60
2022/12/04 06:08:13;;;;;;;37.63;20.67;;;;;;;7.44;100.00;100623.84;5110131;28;20202;-60
2022/12/04 06:10:40;;;;;;;37.27;20.83;;;;;;;7.51;100.00;100628.16;5108324;28;20205;-60
2022/12/04 06:13:08;;;;;;;35.53;19.80;;;;;;;7.51;100.00;100622.97;5105563;28;20654;-70
2022/12/04 06:15:38;;;;;;;34.77;19.03;;;;;;;7.46;100.00;100629.84;5108346;28;20632;-70
2022/12/04 06:18:05;;;;;;;33.77;19.27;;;;;;;7.52;100.00;100633.31;5108319;28;20197;-71
2022/12/04 06:20:32;;;;;;;38.40;20.33;;;;;;;7.57;100.00;100630.72;5119388;27;20617;-71
2022/12/04 06:22:59;;;;;;;36.33;19.70;;;;;;;7.53;100.00;100641.94;5116742;27;20204;-72
2022/12/04 06:25:26;;;;;;;35.37;19.50;;;;;;;7.55;100.00;100643.66;5118325;27;20296;-71
2022/12/04 06:27:53;;;;;;;32.43;17.53;;;;;;;7.53;100.00;100640.22;5088862;28;20589;-70
2022/12/04 06:30:22;;;;;;;36.50;19.30;;;;;;;7.42;100.00;100639.34;5088292;28;20201;-71
2022/12/04 06:32:49;;;;;;;32.13;17.60;;;;;;;7.43;100.00;100640.19;5088889;28;20697;-71
2022/12/04 06:35:16;;;;;;;31.10;18.60;;;;;;;7.46;100.00;100645.34;5092021;28;20663;-71
2022/12/04 06:37:43;;;;;;;30.40;18.77;;;;;;;7.53;100.00;100645.38;5104707;28;20776;-60
2022/12/04 06:40:11;;;;;;;34.97;18.90;;;;;;;7.51;100.00;100644.50;5106924;28;20349;-59
2022/12/04 06:42:38;;;;;;;28.00;16.77;;;;;;;7.55;100.00;100650.56;5107598;28;20221;-59
2022/12/04 06:45:05;;;;;;;29.87;17.77;;;;;;;7.53;100.00;100655.72;5108090;28;20226;-59
2022/12/04 06:47:36;;;;;;;34.90;20.23;;;;;;;7.57;100.00;100646.22;5107594;28;20229;-58
2022/12/04 06:50:03;;;;;;;27.53;17.20;;;;;;;7.54;100.00;100648.81;5108118;28;20219;-62
2022/12/04 06:52:32;;;;;;;33.87;17.73;;;;;;;7.54;100.00;100651.41;5106680;28;20226;-66
2022/12/04 06:55:00;;;;;;;30.23;17.50;;;;;;;7.48;100.00;100648.81;5107592;28;20224;-67
2022/12/04 06:57:26;;;;;;;26.80;16.20;;;;;;;7.50;100.00;100652.25;5107401;28;20623;-67
2022/12/04 06:59:54;;;;;;;29.80;16.17;;;;;;;7.43;100.00;100653.97;5107249;28;20198;-58
2022/12/04 07:02:21;;;;;;;29.03;16.37;;;;;;;7.44;100.00;100644.50;5109129;28;20757;-58
2022/12/04 07:04:49;;;;;;;33.13;17.53;;;;;;;7.38;100.00;100645.34;5108776;28;20198;-59
2022/12/04 07:07:16;;;;;;;26.23;16.03;;;;;;;7.42;100.00;100648.81;5108210;28;20190;-59
2022/12/04 07:09:44;;;;;;;22.73;15.30;;;;;;;7.46;100.00;100643.63;5107169;28;20263;-59
2022/12/04 07:12:11;;;;;;;26.43;16.80;;;;;;;7.45;100.00;100639.31;5112189;28;20300;-59
2022/12/04 07:14:38;;;;;;;30.20;18.00;;;;;;;7.52;100.00;100654.00;5112411;28;20206;-65
2022/12/04 07:17:05;;;;;;;31.93;18.23;;;;;;;7.59;100.00;100654.84;5112570;28;20202;-65
2022/12/04 07:19:32;;;;;;;28.53;16.50;;;;;;;7.56;100.00;100657.44;5112325;28;20226;-59
2022/12/04 07:22:00;;;;;;;30.03;16.83;;;;;;;7.57;100.00;100661.72;5111969;27;20198;-59
2022/12/04 07:24:28;;;;;;;27.53;15.80;;;;;;;7.55;100.00;100658.31;5111640;28;20194;-58
2022/12/04 07:26:55;;;;;;;24.67;12.97;;;;;;;7.51;100.00;100670.34;5111821;28;20216;-59
2022/12/04 07:29:22;;;;;;;25.93;14.33;;;;;;;7.37;100.00;100655.66;5109409;28;20251;-58
2022/12/04 07:31:49;;;;;;;32.07;16.77;;;;;;;7.39;100.00;100659.97;5111648;28;20198;-59
2022/12/04 07:34:16;;;;;;;26.43;16.70;;;;;;;7.42;100.00;100660.00;5111910;28;20340;-59
2022/12/04 07:36:43;;;;;;;27.17;17.87;;;;;;;7.48;100.00;100653.97;5106277;28;20195;-60
2022/12/04 07:39:11;;;;;;;29.43;17.60;;;;;;;7.52;100.00;100655.72;5110396;28;20572;-58
2022/12/04 07:41:38;;;;;;;26.00;16.70;;;;;;;7.57;100.00;100654.84;5111337;28;20199;-59
2022/12/04 07:44:05;;;;;;;25.47;17.03;;;;;;;7.67;100.00;100666.09;5110692;28;20198;-65
2022/12/04 07:46:32;;;;;;;26.40;16.60;;;;;;;7.72;100.00;100666.94;5111573;28;20603;-67
2022/12/04 07:49:00;;;;;;;24.40;15.10;;;;;;;7.66;100.00;100679.84;5111028;28;20191;-66
2022/12/04 07:51:28;;;;;;;23.67;15.43;;;;;;;7.62;100.00;100668.66;5111812;28;20606;-66
2022/12/04 07:53:56;;;;;;;26.27;16.53;;;;;;;7.66;100.00;100669.53;5112702;28;20194;-65
2022/12/04 07:56:25;;;;;;;25.90;15.40;;;;;;;7.61;100.00;100666.91;5112894;28;20194;-66
2022/12/04 07:58:52;;;;;;;20.60;13.87;;;;;;;7.61;100.00;100659.16;5112642;28;20535;-67
2022/12/04 08:01:20;;;;;;;26.07;15.20;;;;;;;7.55;100.00;100660.88;5112835;28;20202;-59
2022/12/04 08:03:48;;;;;;;24.03;15.50;;;;;;;7.56;100.00;100663.44;5112700;28;20201;-59
2022/12/04 08:06:17;;;;;;;22.80;16.10;;;;;;;7.56;100.00;100670.38;5112898;28;20229;-59
2022/12/04 08:08:44;;;;;;;25.00;14.63;;;;;;;7.57;100.00;100669.47;5112168;27;20255;-60
2022/12/04 08:11:13;;;;;;;27.20;16.13;;;;;;;7.53;100.00;100662.59;5112764;28;20195;-59
2022/12/04 08:13:41;;;;;;;29.53;17.13;;;;;;;7.46;100.00;100663.44;5112542;28;20277;-60
2022/12/04 08:16:10;;;;;;;31.57;19.20;;;;;;;7.56;100.00;100676.38;5112671;27;20545;-60
2022/12/04 08:18:37;;;;;;;36.13;18.37;;;;;;;7.50;100.00;100667.75;5112814;28;20564;-59
2022/12/04 08:21:06;;;;;;;32.43;17.27;;;;;;;7.50;100.00;100667.75;5112595;28;20202;-60
2022/12/04 08:23:34;;;;;;;25.80;15.53;;;;;;;7.50;100.00;100670.34;5112470;28;20191;-65
2022/12/04 08:26:01;;;;;;;36.17;18.30;;;;;;;7.53;100.00;100670.34;5112316;28;20218;-66
2022/12/04 08:28:29;;;;;;;31.57;16.47;;;;;;;7.53;100.00;100666.06;5112754;28;20199;-66
2022/12/04 08:31:02;;;;;;;33.77;17.47;;;;;;;7.52;100.00;100666.91;5112174;28;20194;-66
2022/12/04 08:33:29;;;;;;;29.30;17.27;;;;;;;7.52;100.00;100660.88;5112107;28;20285;-65
2022/12/04 08:35:56;;;;;;;34.00;20.27;;;;;;;7.54;100.00;100659.16;5112111;28;20195;-66
2022/12/04 08:38:23;;;;;;;29.60;18.07;;;;;;;7.51;100.00;100664.31;5112354;28;20644;-68
2022/12/04 08:40:50;;;;;;;26.17;14.87;;;;;;;7.52;100.00;100663.47;5111959;28;20203;-67
2022/12/04 08:43:17;;;;;;;29.50;17.03;;;;;;;7.52;100.00;100668.63;5112395;28;20272;-67
2022/12/04 08:45:44;;;;;;;34.43;18.77;;;;;;;7.50;100.00;100671.19;5112056;28;20226;-66
2022/12/04 08:48:12;;;;;;;28.73;16.77;;;;;;;7.54;100.00;100670.38;5112253;28;20666;-59
2022/12/04 08:50:45;;;;;;;24.47;16.13;;;;;;;7.46;100.00;100647.94;5111978;28;20198;-66
2022/12/04 08:53:12;;;;;;;30.33;15.80;;;;;;;7.57;100.00;100666.91;5111547;28;20190;-67
2022/12/04 08:55:38;;;;;;;26.10;15.80;;;;;;;7.61;100.00;100668.63;5112180;28;20205;-62
2022/12/04 08:58:05;;;;;;;29.50;15.50;;;;;;;7.68;100.00;100667.78;5111719;28;20203;-62
2022/12/04 09:00:32;;;;;;;23.50;15.17;;;;;;;7.71;100.00;100665.19;5111528;28;20205;-61
2022/12/04 09:02:59;;;;;;;28.90;16.13;;;;;;;7.77;100.00;100657.47;5111912;28;20245;-73
2022/12/04 09:05:29;;;;;;;22.90;14.73;;;;;;;7.84;100.00;100659.19;5111847;28;20222;-73
2022/12/04 09:07:56;;;;;;;23.73;14.00;;;;;;;7.80;100.00;100662.63;5111048;28;20628;-72
2022/12/04 09:10:23;;;;;;;27.90;16.40;;;;;;;7.83;100.00;100654.88;5110798;28;20198;-73
2022/12/04 09:12:50;;;;;;;24.67;15.10;;;;;;;7.82;100.00;100653.16;5111729;28;20191;-73
2022/12/04 09:15:17;;;;;;;25.20;15.27;;;;;;;7.81;100.00;100648.84;5111703;28;20582;-72
2022/12/04 09:17:44;;;;;;;25.23;16.00;;;;;;;7.86;100.00;100649.72;5111385;28;20191;-63
2022/12/04 09:20:13;;;;;;;29.13;15.70;;;;;;;7.92;100.00;100654.88;5111515;28;20222;-63
2022/12/04 09:22:42;;;;;;;33.20;17.80;;;;;;;7.89;100.00;100654.03;5111402;28;20190;-63
2022/12/04 09:25:10;;;;;;;26.13;14.63;;;;;;;7.79;100.00;100652.31;5111314;28;20234;-62
2022/12/04 09:27:40;;;;;;;28.33;14.13;;;;;;;7.71;100.00;100641.94;5111339;28;20291;-62
2022/12/04 09:30:08;;;;;;;28.60;15.57;;;;;;;7.67;100.00;100648.00;5110967;28;20693;-63
2022/12/04 09:32:35;;;;;;;31.77;16.17;;;;;;;7.62;100.00;100634.19;5110801;28;20203;-62
2022/12/04 09:35:02;;;;;;;33.30;16.53;;;;;;;7.53;100.00;100629.03;5110744;28;20212;-72
2022/12/04 09:37:29;;;;;;;32.50;16.27;;;;;;;7.52;100.00;100625.56;5110776;28;20194;-75
2022/12/04 09:39:57;;;;;;;35.33;17.03;;;;;;;7.59;100.00;100626.44;5111635;28;20238;-63
2022/12/04 09:42:35;;;;;;;33.37;16.70;;;;;;;7.68;100.00;100620.41;5111209;28;20191;-62
2022/12/04 09:45:10;;;;;;;33.70;16.97;;;;;;;7.46;100.00;100614.34;5110629;28;20233;-72
2022/12/04 09:47:42;;;;;;;42.57;19.27;;;;;;;7.48;100.00;100600.59;5109103;28;20210;-72
2022/12/04 09:50:15;;;;;;;37.83;19.43;;;;;;;7.67;100.00;100609.22;5110647;28;20198;-73
2022/12/04 09:52:50;;;;;;;38.03;19.87;;;;;;;7.57;100.00;100617.81;5111104;28;20198;-72
2022/12/04 09:55:24;;;;;;;37.10;17.27;;;;;;;7.63;100.00;100612.66;5111390;28;20221;-72
2022/12/04 09:57:55;;;;;;;35.27;18.17;;;;;;;7.60;100.00;100612.66;5110729;28;20193;-71
2022/12/04 10:00:23;;;;;;;33.13;18.03;;;;;;;7.63;100.00;100612.66;5110719;28;20234;-71
2022/12/04 10:02:55;;;;;;;38.93;19.90;;;;;;;7.63;100.00;100620.41;5110647;28;20233;-71
2022/12/04 10:05:33;;;;;;;41.17;22.13;;;;;;;7.69;100.00;100611.78;5110971;28;20191;-72
2022/12/04 10:08:06;;;;;;;37.93;20.43;;;;;;;7.67;100.00;100614.41;5110633;28;20230;-72
2022/12/04 10:10:39;;;;;;;39.40;18.73;;;;;;;7.66;100.00;100604.91;5110795;28;20655;-73
2022/12/04 10:13:22;;;;;;;28.87;17.23;;;;;;;7.72;100.00;100606.63;5111373;28;20199;-71
2022/12/04 10:15:55;;;;;;;32.13;17.73;;;;;;;7.78;100.00;100602.34;5111214;28;20199;-63
2022/12/04 10:18:36;;;;;;;25.27;16.30;;;;;;;7.83;100.00;100605.75;5110538;28;20726;-62
2022/12/04 10:21:21;;;;;;;32.93;17.27;;;;;;;7.78;100.00;100593.72;5110201;28;21034;-63
2022/12/04 10:24:01;;;;;;;26.30;15.33;;;;;;;7.84;100.00;100591.97;5110097;28;20285;-63
2022/12/04 10:26:36;;;;;;;27.90;14.33;;;;;;;7.89;100.00;100594.56;5110123;28;20291;-63
2022/12/04 10:29:07;;;;;;;24.27;13.93;;;;;;;7.82;100.00;100593.69;5105730;28;20191;-62
2022/12/04 10:31:36;;;;;;;21.53;14.07;;;;;;;7.73;100.00;100591.13;5089152;28;20726;-62
2022/12/04 10:34:08;;;;;;;21.47;13.43;;;;;;;7.72;100.00;100580.78;5089733;28;20612;-62
2022/12/04 10:36:35;;;;;;;21.07;13.87;;;;;;;7.68;100.00;100584.22;5089805;28;20230;-61
2022/12/04 10:39:10;;;;;;;22.20;12.87;;;;;;;7.76;100.00;100575.63;5089047;28;20228;-63
2022/12/04 10:41:47;;;;;;;21.33;13.93;;;;;;;7.74;100.00;100579.94;5089460;28;20202;-61
2022/12/04 10:44:16;;;;;;;23.93;15.33;;;;;;;7.74;100.00;100582.50;5089758;28;20590;-62
2022/12/04 10:46:44;;;;;;;19.63;12.33;;;;;;;7.72;100.00;100581.66;5089154;28;20222;-64
2022/12/04 10:49:17;;;;;;;16.77;11.43;;;;;;;7.67;100.00;100575.63;5089115;28;20195;-64
2022/12/04 10:51:47;;;;;;;18.03;10.70;;;;;;;7.70;100.00;100572.16;5089199;28;20675;-64
2022/12/04 10:54:21;;;;;;;23.80;13.70;;;;;;;7.70;100.00;100570.44;5089434;28;20671;-62
2022/12/04 10:56:55;;;;;;;20.13;12.53;;;;;;;7.72;100.00;100565.28;5089446;28;20444;-64
2022/12/04 10:59:23;;;;;;;14.97;12.47;;;;;;;7.72;100.00;100555.81;5088531;28;20191;-63
2022/12/04 11:01:52;;;;;;;14.70;10.63;;;;;;;7.72;100.00;100550.63;5088889;28;20195;-64
2022/12/04 11:04:24;;;;;;;17.03;12.03;;;;;;;7.68;100.00;100543.75;5089320;28;20195;-63
2022/12/04 11:07:00;;;;;;;19.20;13.17;;;;;;;7.71;100.00;100543.75;5088991;28;20223;-63
2022/12/04 11:09:29;;;;;;;21.50;13.57;;;;;;;7.77;100.00;100545.47;5089536;28;20201;-63
2022/12/04 11:12:07;;;;;;;15.87;12.60;;;;;;;7.68;100.00;100543.75;5096882;28;20669;-74
2022/12/04 11:14:35;;;;;;;31.83;21.00;;;;;;;7.75;100.00;100542.03;5110144;28;20266;-73
2022/12/04 11:17:06;;;;;;;24.23;17.17;;;;;;;7.81;100.00;100542.88;5110059;28;20277;-72
2022/12/04 11:19:36;;;;;;;32.93;21.27;;;;;;;7.75;100.00;100540.31;5110152;28;20241;-72
2022/12/04 11:22:15;;;;;;;17.47;13.13;;;;;;;7.73;100.00;100533.41;5110200;28;20248;-73
2022/12/04 11:24:50;;;;;;;40.10;25.83;;;;;;;7.70;100.00;100536.84;5118142;28;20195;-72
2022/12/04 11:27:23;;;;;;;45.23;29.53;;;;;;;7.78;100.00;100524.81;5110641;28;20683;-73
2022/12/04 11:29:52;;;;;;;21.90;16.47;;;;;;;7.81;100.00;100517.03;5113337;28;20575;-75
2022/12/04 11:32:23;;;;;;;14.20;11.10;;;;;;;7.85;100.00;100521.34;5110558;28;20209;-75
2022/12/04 11:34:53;;;;;;;16.63;11.20;;;;;;;7.87;100.00;100527.38;5110426;28;20198;-74